Helsinki, Suomi

26. kesäkuuta 2017 klo 06:46 (EEST) (GMT +0300)
Odilampi | | Change Station

Kork 223 ft 60.31 °N, 24.76 °E | Updated 17 seconds ago

Pilvistä
Pilvistä
53.4 °F
Tuntuu kuin 53.4 °F
N
1.1
Tuuli Suunnaltaan vaihteleva Tuuli ilmansuunnasta Länsi
Gusts 1.1 mph

Tänään
Korkea -- | Matala -- °F
--% Sateen mahd.
Eilen
Korkea -- | Matala -- °F
Precip. -- tuumaa
Ilmanpaine 29.33 tuumaa
Näkyvyys 6.2 mailia
Pilviä Vähäistä pilvisyyttä 800 ft
Vähäistä pilvisyyttä 8000 ft
Pilvistä 20000 ft
Kastepiste 50 °F
Ilmankosteus 89%
Sademäärä 0.00 tuumaa
Lumensyvyys Ei saatavilla
3:54 AM 10:51 PM
Kasvava sirppi, 6% visible
METAR EFHK 260320Z 19008KT 9999 SCT008 SCT080 BKN200 12/10 Q0993 NOSIG
Ilmanpaine 29.33 tuumaa
Näkyvyys 6.2 mailia
Pilviä Vähäistä pilvisyyttä 800 ft
Vähäistä pilvisyyttä 8000 ft
Pilvistä 20000 ft
Kastepiste 50 °F
Ilmankosteus 89%
Sademäärä 0.00 tuumaa
Lumensyvyys Ei saatavilla
3:54 AM 10:51 PM
Kasvava sirppi, 6% visible
METAR EFHK 260320Z 19008KT 9999 SCT008 SCT080 BKN200 12/10 Q0993 NOSIG

Get Severe Weather Alerts

Thanks for signing up!

Be on the lookout for a verification email in your inbox.

You'll start receiving the daily forecast at 6 AM.

×

10-Day Weather Forecast

×

Almanac

Tähtitiede

Jun. 26, 2017 Nousuaika Laskuaika
Valoisa aika
Porvarillinen hämärä
Nauttinen hämärä
Astronominen hämärä
Kuu
Näkyvän valon pituus
Päivän pituus
Tomorrow will be .
, % of the Moon is Illuminated

Tämän päivän ennätykset

Country Highs Country Lows

Community

WunderPhotos

Category 6

Welcome to Category 6. This is the collective home for Weather Underground's featured writeups by Dr. Jeff Masters (right), Bob Henson (left), Chris Burt, and other regular contributors.

Nearby

Ilmanlaatu

  Ilmanlaatu AQ Index Pollutant
Not available.

Lumensyvyys

Station Depth Korkeus

Maanjäristysaktiivisuus

Paikkakunta Distance Mag. Time & Date
Minimum magnitude displayed is 2.5.

Coastal Water Temperatures

Paikka Lämpötila

Stations

Lähimmät sääasemat

Aseman sijainti Lämpötila Tuulen hyytävyys Kastepiste Ilmankosteus Tuuli Precip. Kork Päivitetty Tyyppi